This is the latest recevied weather packets stored in our database for station/object AD4CG. If no packets are shown the sender has not sent any weather packets the latest 10 day(s).
| Time | Temp. | Humidity | Pressure | Rain* | Wind** | Luminosity | Snow |
|---|---|---|---|---|---|---|---|
| 1777525049 | 18.33° C | 100% | 1010.2 hPa | 2.29 mm | - | - | - |
| 1777524103 | 20.56° C | 100% | 1009.8 hPa | 0 mm | - | - | - |
| 1777522538 | 21.11° C | 100% | 1008.5 hPa | 0 mm | - | - | - |
| 1777521597 | 20.56° C | 100% | 1008.1 hPa | 0 mm | - | - | - |
| 1777520031 | 20.56° C | 100% | 1008.5 hPa | 0 mm | - | - | - |
| 1777519090 | 20.56° C | 100% | 1008.8 hPa | 0 mm | - | - | - |
| 1777517524 | 20.56° C | 100% | 1008.8 hPa | 0 mm | - | - | - |
| 1777515647 | 20.56° C | 100% | 1008.8 hPa | 0 mm | - | - | - |
| 1777515321 | 20.56° C | 100% | 1009.1 hPa | 0 mm | - | - | - |
| 1777514996 | 20.56° C | 100% | 1008.8 hPa | 0 mm | - | - | - |
| 1777514365 | 21.11° C | 100% | 1008.8 hPa | 0 mm | - | - | - |
| 1777508775 | 21.11° C | 100% | 1008.1 hPa | 0 mm | - | - | - |
| 1777507832 | 21.67° C | 100% | 1007.8 hPa | 0 mm | - | - | - |
| 1777507517 | 21.67° C | 100% | 1008.5 hPa | 0 mm | - | - | - |
| 1777506576 | 22.22° C | 100% | 1008.1 hPa | 0 mm | - | - | - |
| 1777504384 | 23.89° C | 90% | 1007.8 hPa | 0 mm | - | - | - |
| 1777498860 | 23.89° C | 89% | 1008.8 hPa | 0 mm | - | - | - |
| 1777497600 | 23.89° C | 92% | 1008.8 hPa | 0 mm | - | - | - |
| 1777489965 | 22.22° C | 100% | 1010.8 hPa | 0 mm | - | - | - |
| 1777489345 | 21.67° C | 100% | 1010.8 hPa | 0 mm | - | - | - |
| 1777488727 | 22.22° C | 100% | 1011.2 hPa | 0 mm | - | - | - |
| 1777486889 | 21.67° C | 100% | 1011.5 hPa | 0 mm | - | - | - |
| 1777485965 | 21.67° C | 100% | 1011.9 hPa | 0 mm | - | - | - |
| 1777485650 | 21.67° C | 100% | 1011.5 hPa | 0 mm | - | - | - |
| 1777482774 | 20.56° C | 100% | 1011.9 hPa | 0 mm | - | - | - |
* Rain latest hour (hover to see other rain measurements)
** Current wind speed in m/s (hover to see current wind gust speed)